sensor_id;sensor_type;location;lat;lon;timestamp;pressure;altitude;pressure_sealevel;temperature;humidity
30081;BME280;16902;50.816;12.828;2023-02-07T00:03:00;100052.38;;;-9.81;100.00
30081;BME280;16902;50.816;12.828;2023-02-07T00:08:03;100048.13;;;-10.00;100.00
30081;BME280;16902;50.816;12.828;2023-02-07T00:13:04;100053.97;;;-10.09;100.00
30081;BME280;16902;50.816;12.828;2023-02-07T00:18:06;100063.19;;;-10.19;100.00
30081;BME280;16902;50.816;12.828;2023-02-07T00:23:08;100069.03;;;-10.26;100.00
30081;BME280;16902;50.816;12.828;2023-02-07T00:28:10;100065.63;;;-10.40;100.00
30081;BME280;16902;50.816;12.828;2023-02-07T00:33:12;100067.31;;;-10.38;100.00
30081;BME280;16902;50.816;12.828;2023-02-07T00:38:14;100069.78;;;-10.47;100.00
30081;BME280;16902;50.816;12.828;2023-02-07T00:43:16;100069.81;;;-10.48;100.00
30081;BME280;16902;50.816;12.828;2023-02-07T00:48:31;100067.25;;;-10.50;100.00
30081;BME280;16902;50.816;12.828;2023-02-07T00:53:33;100068.88;;;-10.59;100.00
30081;BME280;16902;50.816;12.828;2023-02-07T00:58:36;100063.78;;;-10.69;100.00
30081;BME280;16902;50.816;12.828;2023-02-07T01:03:38;100070.41;;;-10.84;100.00
30081;BME280;16902;50.816;12.828;2023-02-07T01:08:40;100077.97;;;-10.83;100.00
30081;BME280;16902;50.816;12.828;2023-02-07T01:13:42;100062.88;;;-10.84;100.00
30081;BME280;16902;50.816;12.828;2023-02-07T01:18:44;100062.78;;;-11.01;100.00
30081;BME280;16902;50.816;12.828;2023-02-07T01:23:46;100065.22;;;-11.07;100.00
30081;BME280;16902;50.816;12.828;2023-02-07T01:28:48;100067.78;;;-11.04;100.00
30081;BME280;16902;50.816;12.828;2023-02-07T01:33:55;100066.16;;;-10.96;100.00
30081;BME280;16902;50.816;12.828;2023-02-07T01:38:58;100064.41;;;-11.06;100.00
30081;BME280;16902;50.816;12.828;2023-02-07T01:44:04;100059.41;;;-11.02;100.00
30081;BME280;16902;50.816;12.828;2023-02-07T01:49:11;100052.69;;;-11.03;100.00
30081;BME280;16902;50.816;12.828;2023-02-07T01:54:16;100038.44;;;-11.07;100.00
30081;BME280;16902;50.816;12.828;2023-02-07T01:59:19;100037.53;;;-11.17;100.00
30081;BME280;16902;50.816;12.828;2023-02-07T02:04:21;100039.97;;;-11.26;100.00
30081;BME280;16902;50.816;12.828;2023-02-07T02:09:25;100033.94;;;-11.45;100.00
30081;BME280;16902;50.816;12.828;2023-02-07T02:46:41;100008.53;;;-11.77;100.00
30081;BME280;16902;50.816;12.828;2023-02-07T02:51:49;100014.34;;;-11.87;100.00
30081;BME280;16902;50.816;12.828;2023-02-07T03:02:16;100015.97;;;-11.90;100.00
30081;BME280;16902;50.816;12.828;2023-02-07T03:13:08;100031.00;;;-11.95;100.00
30081;BME280;16902;50.816;12.828;2023-02-07T03:23:34;100027.59;;;-12.00;100.00
30081;BME280;16902;50.816;12.828;2023-02-07T03:28:38;100033.56;;;-11.92;100.00
30081;BME280;16902;50.816;12.828;2023-02-07T03:33:43;100024.25;;;-12.02;100.00
30081;BME280;16902;50.816;12.828;2023-02-07T03:38:49;100015.72;;;-12.15;100.00
30081;BME280;16902;50.816;12.828;2023-02-07T03:43:52;100001.56;;;-12.10;100.00
30081;BME280;16902;50.816;12.828;2023-02-07T03:48:55;100023.41;;;-12.01;100.00
30081;BME280;16902;50.816;12.828;2023-02-07T03:53:57;100023.31;;;-12.09;100.00
30081;BME280;16902;50.816;12.828;2023-02-07T03:58:59;100024.97;;;-12.11;100.00
30081;BME280;16902;50.816;12.828;2023-02-07T04:04:01;100020.81;;;-12.09;100.00
30081;BME280;16902;50.816;12.828;2023-02-07T04:09:03;100014.91;;;-12.14;100.00
30081;BME280;16902;50.816;12.828;2023-02-07T04:14:05;100026.50;;;-12.24;100.00
30081;BME280;16902;50.816;12.828;2023-02-07T04:19:07;100016.41;;;-12.31;100.00
30081;BME280;16902;50.816;12.828;2023-02-07T04:24:09;100021.47;;;-12.25;100.00
30081;BME280;16902;50.816;12.828;2023-02-07T04:29:11;100021.38;;;-12.36;100.00
30081;BME280;16902;50.816;12.828;2023-02-07T04:34:12;100017.09;;;-12.43;100.00
30081;BME280;16902;50.816;12.828;2023-02-07T04:39:14;100018.63;;;-12.53;100.00
30081;BME280;16902;50.816;12.828;2023-02-07T04:44:16;100012.75;;;-12.56;100.00
30081;BME280;16902;50.816;12.828;2023-02-07T04:49:18;100026.88;;;-12.64;100.00
30081;BME280;16902;50.816;12.828;2023-02-07T04:54:20;100025.25;;;-12.59;100.00
30081;BME280;16902;50.816;12.828;2023-02-07T04:59:22;100041.16;;;-12.57;100.00
30081;BME280;16902;50.816;12.828;2023-02-07T05:04:24;100059.38;;;-12.72;100.00
30081;BME280;16902;50.816;12.828;2023-02-07T05:09:26;100062.53;;;-12.85;100.00
30081;BME280;16902;50.816;12.828;2023-02-07T05:14:28;100073.41;;;-12.85;100.00
30081;BME280;16902;50.816;12.828;2023-02-07T05:19:29;100086.88;;;-12.77;100.00
30081;BME280;16902;50.816;12.828;2023-02-07T05:24:31;100094.34;;;-12.81;100.00
30081;BME280;16902;50.816;12.828;2023-02-07T05:29:33;100082.69;;;-12.79;100.00
30081;BME280;16902;50.816;12.828;2023-02-07T05:34:35;100086.09;;;-12.76;100.00
30081;BME280;16902;50.816;12.828;2023-02-07T05:39:37;100068.59;;;-12.71;100.00
30081;BME280;16902;50.816;12.828;2023-02-07T05:44:39;100065.28;;;-12.68;100.00
30081;BME280;16902;50.816;12.828;2023-02-07T05:49:41;100070.38;;;-12.62;100.00
30081;BME280;16902;50.816;12.828;2023-02-07T05:54:44;100060.38;;;-12.59;100.00
30081;BME280;16902;50.816;12.828;2023-02-07T05:59:46;100060.31;;;-12.62;100.00
30081;BME280;16902;50.816;12.828;2023-02-07T06:04:48;100069.44;;;-12.69;100.00
30081;BME280;16902;50.816;12.828;2023-02-07T06:09:50;100071.78;;;-12.81;100.00
30081;BME280;16902;50.816;12.828;2023-02-07T06:14:51;100066.81;;;-12.80;100.00
30081;BME280;16902;50.816;12.828;2023-02-07T06:19:53;100062.75;;;-12.70;100.00
30081;BME280;16902;50.816;12.828;2023-02-07T06:24:55;100055.25;;;-12.68;100.00
30081;BME280;16902;50.816;12.828;2023-02-07T06:29:57;100047.72;;;-12.68;100.00
30081;BME280;16902;50.816;12.828;2023-02-07T06:34:59;100052.03;;;-12.58;100.00
30081;BME280;16902;50.816;12.828;2023-02-07T06:40:01;100048.59;;;-12.66;100.00
30081;BME280;16902;50.816;12.828;2023-02-07T06:45:04;100041.19;;;-12.56;100.00
30081;BME280;16902;50.816;12.828;2023-02-07T06:50:06;100043.00;;;-12.46;100.00
30081;BME280;16902;50.816;12.828;2023-02-07T06:55:09;100043.13;;;-12.36;100.00
30081;BME280;16902;50.816;12.828;2023-02-07T07:00:12;100046.41;;;-12.40;100.00
30081;BME280;16902;50.816;12.828;2023-02-07T07:05:14;100050.81;;;-12.20;100.00
30081;BME280;16902;50.816;12.828;2023-02-07T07:10:17;100053.38;;;-12.13;100.00
30081;BME280;16902;50.816;12.828;2023-02-07T07:15:19;100056.06;;;-12.00;100.00
30081;BME280;16902;50.816;12.828;2023-02-07T07:20:21;100054.53;;;-11.87;100.00
30081;BME280;16902;50.816;12.828;2023-02-07T07:25:23;100052.13;;;-11.73;100.00
30081;BME280;16902;50.816;12.828;2023-02-07T07:30:24;100060.69;;;-11.51;100.00
30081;BME280;16902;50.816;12.828;2023-02-07T07:35:27;100065.00;;;-11.36;100.00
30081;BME280;16902;50.816;12.828;2023-02-07T07:40:29;100066.78;;;-11.22;100.00
30081;BME280;16902;50.816;12.828;2023-02-07T07:45:31;100066.09;;;-11.02;100.00
30081;BME280;16902;50.816;12.828;2023-02-07T07:50:33;100058.66;;;-10.89;100.00
30081;BME280;16902;50.816;12.828;2023-02-07T07:55:35;100070.59;;;-10.55;100.00
30081;BME280;16902;50.816;12.828;2023-02-07T08:00:37;100084.91;;;-10.45;100.00
30081;BME280;16902;50.816;12.828;2023-02-07T08:05:39;100078.38;;;-9.91;100.00
30081;BME280;16902;50.816;12.828;2023-02-07T08:10:41;100085.19;;;-9.41;100.00
30081;BME280;16902;50.816;12.828;2023-02-07T08:15:43;100091.13;;;-9.04;100.00
30081;BME280;16902;50.816;12.828;2023-02-07T08:20:47;100093.59;;;-8.64;100.00
30081;BME280;16902;50.816;12.828;2023-02-07T08:25:50;100095.97;;;-8.32;100.00
30081;BME280;16902;50.816;12.828;2023-02-07T08:30:52;100092.47;;;-7.91;100.00
30081;BME280;16902;50.816;12.828;2023-02-07T08:35:54;100093.09;;;-7.53;100.00
30081;BME280;16902;50.816;12.828;2023-02-07T08:40:56;100101.31;;;-7.20;100.00
30081;BME280;16902;50.816;12.828;2023-02-07T08:45:58;100094.34;;;-6.96;100.00
30081;BME280;16902;50.816;12.828;2023-02-07T08:51:08;100099.31;;;-6.81;100.00
30081;BME280;16902;50.816;12.828;2023-02-07T08:56:10;100104.22;;;-6.66;100.00
30081;BME280;16902;50.816;12.828;2023-02-07T09:01:12;100101.53;;;-6.48;100.00
30081;BME280;16902;50.816;12.828;2023-02-07T09:06:14;100107.81;;;-6.07;100.00
30081;BME280;16902;50.816;12.828;2023-02-07T09:11:16;100116.97;;;-5.95;100.00
30081;BME280;16902;50.816;12.828;2023-02-07T09:16:18;100122.94;;;-5.98;100.00
30081;BME280;16902;50.816;12.828;2023-02-07T09:21:20;100120.94;;;-5.77;100.00
30081;BME280;16902;50.816;12.828;2023-02-07T09:26:22;100118.97;;;-5.57;100.00
30081;BME280;16902;50.816;12.828;2023-02-07T09:31:27;100120.97;;;-5.17;100.00
30081;BME280;16902;50.816;12.828;2023-02-07T09:36:29;100114.53;;;-5.39;100.00
30081;BME280;16902;50.816;12.828;2023-02-07T09:47:01;100127.56;;;-4.56;100.00
30081;BME280;16902;50.816;12.828;2023-02-07T09:52:09;100117.50;;;-4.14;100.00
30081;BME280;16902;50.816;12.828;2023-02-07T09:57:18;100108.75;;;-4.01;100.00
30081;BME280;16902;50.816;12.828;2023-02-07T10:07:31;100103.34;;;-3.45;100.00
30081;BME280;16902;50.816;12.828;2023-02-07T10:34:00;100094.88;;;-2.42;100.00
30081;BME280;16902;50.816;12.828;2023-02-07T10:39:14;100092.63;;;-2.21;100.00
30081;BME280;16902;50.816;12.828;2023-02-07T10:44:18;100099.19;;;-2.13;100.00
30081;BME280;16902;50.816;12.828;2023-02-07T10:49:41;100088.13;;;-2.44;100.00
30081;BME280;16902;50.816;12.828;2023-02-07T10:54:53;100079.56;;;-2.42;100.00
30081;BME280;16902;50.816;12.828;2023-02-07T11:10:18;100061.88;;;-0.06;100.00
30081;BME280;16902;50.816;12.828;2023-02-07T11:15:24;100065.28;;;2.60;100.00
30081;BME280;16902;50.816;12.828;2023-02-07T11:20:34;100063.78;;;3.93;100.00
30081;BME280;16902;50.816;12.828;2023-02-07T11:25:41;100063.34;;;5.09;100.00
30081;BME280;16902;50.816;12.828;2023-02-07T11:30:43;100066.47;;;5.59;100.00
30081;BME280;16902;50.816;12.828;2023-02-07T11:41:23;100057.38;;;7.69;100.00
30081;BME280;16902;50.816;12.828;2023-02-07T11:46:33;100051.22;;;8.33;100.00
30081;BME280;16902;50.816;12.828;2023-02-07T11:51:35;100046.38;;;9.58;100.00
30081;BME280;16902;50.816;12.828;2023-02-07T11:56:42;100051.63;;;11.52;71.46
30081;BME280;16902;50.816;12.828;2023-02-07T12:01:49;100039.16;;;11.65;63.85
30081;BME280;16902;50.816;12.828;2023-02-07T12:18:02;100042.84;;;12.14;65.16
30081;BME280;16902;50.816;12.828;2023-02-07T12:23:18;100043.28;;;11.58;67.83
30081;BME280;16902;50.816;12.828;2023-02-07T12:29:05;100050.13;;;11.59;55.35
30081;BME280;16902;50.816;12.828;2023-02-07T12:39:49;100040.81;;;13.34;57.20
30081;BME280;16902;50.816;12.828;2023-02-07T12:44:56;100036.56;;;16.35;43.99
30081;BME280;16902;50.816;12.828;2023-02-07T13:00:49;100026.91;;;15.93;44.86
30081;BME280;16902;50.816;12.828;2023-02-07T13:21:57;100038.50;;;12.92;54.49
30081;BME280;16902;50.816;12.828;2023-02-07T13:27:04;100027.38;;;11.61;55.41
30081;BME280;16902;50.816;12.828;2023-02-07T13:32:12;100025.41;;;10.70;59.50
30081;BME280;16902;50.816;12.828;2023-02-07T13:37:16;100024.59;;;10.69;62.48
30081;BME280;16902;50.816;12.828;2023-02-07T13:53:31;100013.19;;;4.69;100.00
30081;BME280;16902;50.816;12.828;2023-02-07T14:09:16;100001.06;;;-0.01;100.00
30081;BME280;16902;50.816;12.828;2023-02-07T14:14:28;100007.41;;;-0.33;100.00
30081;BME280;16902;50.816;12.828;2023-02-07T14:29:55;99995.53;;;-0.12;100.00
30081;BME280;16902;50.816;12.828;2023-02-07T14:35:05;99995.78;;;-0.18;100.00
30081;BME280;16902;50.816;12.828;2023-02-07T14:40:18;99987.34;;;0.02;100.00
30081;BME280;16902;50.816;12.828;2023-02-07T14:45:20;99975.91;;;0.10;100.00
30081;BME280;16902;50.816;12.828;2023-02-07T14:50:26;99982.47;;;-0.05;100.00
30081;BME280;16902;50.816;12.828;2023-02-07T14:55:50;99975.13;;;-0.37;100.00
30081;BME280;16902;50.816;12.828;2023-02-07T15:00:56;99972.63;;;-1.11;100.00
30081;BME280;16902;50.816;12.828;2023-02-07T15:06:03;99967.50;;;-0.86;100.00
30081;BME280;16902;50.816;12.828;2023-02-07T15:11:12;99964.81;;;-0.83;100.00
30081;BME280;16902;50.816;12.828;2023-02-07T15:16:26;99957.53;;;-1.18;100.00
30081;BME280;16902;50.816;12.828;2023-02-07T15:21:33;99951.38;;;-1.13;100.00
30081;BME280;16902;50.816;12.828;2023-02-07T15:26:35;99949.47;;;-1.06;100.00
30081;BME280;16902;50.816;12.828;2023-02-07T15:31:39;99939.72;;;-1.46;100.00
30081;BME280;16902;50.816;12.828;2023-02-07T15:36:43;99951.34;;;-1.63;100.00
30081;BME280;16902;50.816;12.828;2023-02-07T15:41:48;99952.25;;;-1.92;100.00
30081;BME280;16902;50.816;12.828;2023-02-07T15:46:56;99957.28;;;-2.46;100.00
30081;BME280;16902;50.816;12.828;2023-02-07T15:52:06;99956.53;;;-2.81;100.00
30081;BME280;16902;50.816;12.828;2023-02-07T15:57:39;99952.28;;;-3.13;100.00
30081;BME280;16902;50.816;12.828;2023-02-07T16:02:41;99948.63;;;-3.36;100.00
30081;BME280;16902;50.816;12.828;2023-02-07T16:07:44;99962.72;;;-3.56;100.00
30081;BME280;16902;50.816;12.828;2023-02-07T16:12:53;99970.75;;;-3.73;100.00
30081;BME280;16902;50.816;12.828;2023-02-07T16:18:01;99985.53;;;-3.89;100.00
30081;BME280;16902;50.816;12.828;2023-02-07T16:23:05;99996.09;;;-4.06;100.00
30081;BME280;16902;50.816;12.828;2023-02-07T16:28:12;99994.63;;;-4.18;100.00
30081;BME280;16902;50.816;12.828;2023-02-07T16:33:15;99993.88;;;-4.23;100.00
30081;BME280;16902;50.816;12.828;2023-02-07T16:38:17;99992.50;;;-4.37;100.00
30081;BME280;16902;50.816;12.828;2023-02-07T16:43:36;100005.44;;;-4.48;100.00
30081;BME280;16902;50.816;12.828;2023-02-07T16:48:39;100017.31;;;-4.50;100.00
30081;BME280;16902;50.816;12.828;2023-02-07T16:53:40;100021.81;;;-4.65;100.00
30081;BME280;16902;50.816;12.828;2023-02-07T16:58:43;100030.66;;;-4.82;100.00
30081;BME280;16902;50.816;12.828;2023-02-07T17:03:45;100035.78;;;-4.85;100.00
30081;BME280;16902;50.816;12.828;2023-02-07T17:08:47;100043.44;;;-4.87;100.00
30081;BME280;16902;50.816;12.828;2023-02-07T17:13:54;100048.69;;;-4.98;100.00
30081;BME280;16902;50.816;12.828;2023-02-07T17:18:57;100056.31;;;-4.99;100.00
30081;BME280;16902;50.816;12.828;2023-02-07T17:23:58;100053.13;;;-5.10;100.00
30081;BME280;16902;50.816;12.828;2023-02-07T17:29:00;100051.59;;;-5.19;100.00
30081;BME280;16902;50.816;12.828;2023-02-07T17:34:02;100053.34;;;-5.24;100.00
30081;BME280;16902;50.816;12.828;2023-02-07T17:39:06;100066.25;;;-5.36;100.00
30081;BME280;16902;50.816;12.828;2023-02-07T17:44:08;100070.63;;;-5.48;100.00
30081;BME280;16902;50.816;12.828;2023-02-07T17:49:14;100062.28;;;-5.54;100.00
30081;BME280;16902;50.816;12.828;2023-02-07T17:54:16;100068.41;;;-5.71;100.00
30081;BME280;16902;50.816;12.828;2023-02-07T17:59:22;100060.09;;;-5.79;100.00
30081;BME280;16902;50.816;12.828;2023-02-07T18:04:25;100062.00;;;-5.93;100.00
30081;BME280;16902;50.816;12.828;2023-02-07T18:09:26;100063.75;;;-6.00;100.00
30081;BME280;16902;50.816;12.828;2023-02-07T18:14:28;100062.03;;;-5.96;100.00
30081;BME280;16902;50.816;12.828;2023-02-07T18:19:30;100056.16;;;-6.00;100.00
30081;BME280;16902;50.816;12.828;2023-02-07T18:24:33;100050.16;;;-5.92;100.00
30081;BME280;16902;50.816;12.828;2023-02-07T18:29:35;100056.16;;;-6.00;100.00
30081;BME280;16902;50.816;12.828;2023-02-07T18:34:38;100058.06;;;-6.14;100.00
30081;BME280;16902;50.816;12.828;2023-02-07T18:39:40;100062.44;;;-6.30;100.00
30081;BME280;16902;50.816;12.828;2023-02-07T18:44:43;100077.00;;;-6.45;100.00
30081;BME280;16902;50.816;12.828;2023-02-07T18:49:45;100080.47;;;-6.53;100.00
30081;BME280;16902;50.816;12.828;2023-02-07T18:54:47;100080.56;;;-6.62;100.00
30081;BME280;16902;50.816;12.828;2023-02-07T18:59:49;100075.66;;;-6.80;100.00
30081;BME280;16902;50.816;12.828;2023-02-07T19:04:51;100074.91;;;-6.90;100.00
30081;BME280;16902;50.816;12.828;2023-02-07T19:09:53;100067.38;;;-6.96;100.00
30081;BME280;16902;50.816;12.828;2023-02-07T19:14:55;100080.06;;;-7.02;100.00
30081;BME280;16902;50.816;12.828;2023-02-07T19:19:57;100074.25;;;-7.10;100.00
30081;BME280;16902;50.816;12.828;2023-02-07T19:24:58;100081.00;;;-7.14;100.00
30081;BME280;16902;50.816;12.828;2023-02-07T19:30:00;100081.09;;;-7.23;100.00
30081;BME280;16902;50.816;12.828;2023-02-07T19:35:02;100088.81;;;-7.46;100.00
30081;BME280;16902;50.816;12.828;2023-02-07T19:40:04;100086.44;;;-7.67;100.00
30081;BME280;16902;50.816;12.828;2023-02-07T19:45:07;100068.72;;;-7.69;100.00
30081;BME280;16902;50.816;12.828;2023-02-07T19:50:09;100069.66;;;-7.84;100.00
30081;BME280;16902;50.816;12.828;2023-02-07T19:55:11;100068.91;;;-7.99;100.00
30081;BME280;16902;50.816;12.828;2023-02-07T20:00:13;100068.91;;;-8.03;100.00
30081;BME280;16902;50.816;12.828;2023-02-07T20:05:15;100064.66;;;-7.90;100.00
30081;BME280;16902;50.816;12.828;2023-02-07T20:10:17;100073.09;;;-7.98;100.00
30081;BME280;16902;50.816;12.828;2023-02-07T20:15:19;100072.38;;;-8.16;100.00
30081;BME280;16902;50.816;12.828;2023-02-07T20:20:21;100069.03;;;-8.25;100.00
30081;BME280;16902;50.816;12.828;2023-02-07T20:25:23;100069.81;;;-8.17;100.00
30081;BME280;16902;50.816;12.828;2023-02-07T20:30:25;100072.38;;;-8.23;100.00
30081;BME280;16902;50.816;12.828;2023-02-07T20:35:27;100065.66;;;-8.21;100.00
30081;BME280;16902;50.816;12.828;2023-02-07T20:40:28;100056.38;;;-8.19;100.00
30081;BME280;16902;50.816;12.828;2023-02-07T20:45:30;100054.72;;;-8.25;100.00
30081;BME280;16902;50.816;12.828;2023-02-07T20:50:32;100058.09;;;-8.31;100.00
30081;BME280;16902;50.816;12.828;2023-02-07T20:55:35;100059.00;;;-8.41;100.00
30081;BME280;16902;50.816;12.828;2023-02-07T21:00:37;100064.94;;;-8.54;100.00
30081;BME280;16902;50.816;12.828;2023-02-07T21:05:39;100064.94;;;-8.59;100.00
30081;BME280;16902;50.816;12.828;2023-02-07T21:10:41;100063.25;;;-8.58;100.00
30081;BME280;16902;50.816;12.828;2023-02-07T21:15:43;100064.13;;;-8.76;100.00
30081;BME280;16902;50.816;12.828;2023-02-07T21:21:07;100067.53;;;-8.91;100.00
30081;BME280;16902;50.816;12.828;2023-02-07T21:26:11;100062.50;;;-8.97;100.00
30081;BME280;16902;50.816;12.828;2023-02-07T21:31:15;100057.47;;;-8.98;100.00
30081;BME280;16902;50.816;12.828;2023-02-07T21:36:23;100060.00;;;-9.08;100.00
30081;BME280;16902;50.816;12.828;2023-02-07T21:41:26;100054.09;;;-9.25;100.00
30081;BME280;16902;50.816;12.828;2023-02-07T21:46:40;100045.69;;;-9.41;100.00
30081;BME280;16902;50.816;12.828;2023-02-07T21:51:44;100058.28;;;-9.48;100.00
30081;BME280;16902;50.816;12.828;2023-02-07T21:56:48;100049.06;;;-9.36;100.00
30081;BME280;16902;50.816;12.828;2023-02-07T22:01:50;100052.41;;;-9.29;100.00
30081;BME280;16902;50.816;12.828;2023-02-07T22:06:52;100046.53;;;-9.26;100.00
30081;BME280;16902;50.816;12.828;2023-02-07T22:11:54;100046.50;;;-9.23;100.00
30081;BME280;16902;50.816;12.828;2023-02-07T22:16:56;100037.28;;;-9.26;100.00
30081;BME280;16902;50.816;12.828;2023-02-07T22:21:58;100046.53;;;-9.25;100.00
30081;BME280;16902;50.816;12.828;2023-02-07T22:27:00;100034.75;;;-9.35;100.00
30081;BME280;16902;50.816;12.828;2023-02-07T22:32:02;100033.09;;;-9.41;100.00
30081;BME280;16902;50.816;12.828;2023-02-07T22:37:04;100023.84;;;-9.37;100.00
30081;BME280;16902;50.816;12.828;2023-02-07T22:42:06;100016.28;;;-9.40;100.00
30081;BME280;16902;50.816;12.828;2023-02-07T22:47:08;100013.75;;;-9.55;100.00
30081;BME280;16902;50.816;12.828;2023-02-07T22:52:09;100016.28;;;-9.66;100.00
30081;BME280;16902;50.816;12.828;2023-02-07T22:57:11;100008.72;;;-9.71;100.00
30081;BME280;16902;50.816;12.828;2023-02-07T23:02:16;100001.97;;;-9.75;100.00
30081;BME280;16902;50.816;12.828;2023-02-07T23:07:18;100003.63;;;-9.92;100.00
30081;BME280;16902;50.816;12.828;2023-02-07T23:12:20;100006.97;;;-9.93;100.00
30081;BME280;16902;50.816;12.828;2023-02-07T23:17:22;100014.50;;;-10.01;100.00
30081;BME280;16902;50.816;12.828;2023-02-07T23:22:24;100015.34;;;-10.06;100.00
30081;BME280;16902;50.816;12.828;2023-02-07T23:27:26;100012.78;;;-10.20;100.00
30081;BME280;16902;50.816;12.828;2023-02-07T23:32:28;100008.56;;;-10.37;100.00
30081;BME280;16902;50.816;12.828;2023-02-07T23:37:29;100027.03;;;-10.36;100.00
30081;BME280;16902;50.816;12.828;2023-02-07T23:42:31;100034.63;;;-10.33;100.00
30081;BME280;16902;50.816;12.828;2023-02-07T23:47:33;100032.03;;;-10.47;100.00
30081;BME280;16902;50.816;12.828;2023-02-07T23:52:35;100035.38;;;-10.45;100.00
30081;BME280;16902;50.816;12.828;2023-02-07T23:57:37;100038.78;;;-10.44;100.00
